Portada
METAR-TAF:

METAR-TAF

Aeroports :

Santander, Espanya

latitud: 43-26N, longitud: 003-49W, altitud: 6 m

Observació

L'informe es va fer fa 26 minuts, a les 10:00 UTC
Vent calma
Temperatura 8°C
Humitat 93%
Pressió 1018 hPa
Visibilitat 10 km o més
sense núvols per sota de 1500 mi sense presència de cumulonimbus.

METAR: LEXJ 251000Z 00000KT CAVOK 08/07 Q1018

Hora: 11:26 (10:26 UTC)

Pronòstic

L'informe es va fer fa 2 hores i 26 minuts, a les 08:00 UTC
Pronòstic vàlid del 25 a les 09 UTC al 26 a les 09 UTC
Vent 6 kt del Sud
Visibilitat 10 km o més
Escasses núvols a una alçada de 3500 ft
Núvols disperses a una alçada de 5000 ft
Probabilitat 30% :
Temporalment
l' 25 a les 12 UTC al 25 a les 24 UTC
Visibilitat: 3000 m
Cel ennuvolat a una alçada de 1200 ft
pluja

TAF: LEXJ 250800Z 2509/2609 17006KT 9999 FEW035 SCT050 TX14/2514Z TN05/2607Z PROB30 TEMPO 2512/2524 3000 -RA BKN012

Observacions i pronòstics meteorològics de més de 4000 aeroports (METAR i TAF).

Les estacions disponibles són els punts grocs i vermells al mapa.

Posi el ratolí al punt desitjat per veure el nom de l'estació.

Feu clic per veure les observacions i els pronòstics meteorològics.

Per canviar el mapa: feu clic els botons verds amb una creu de color negre per apropar; al botó verd amb un guió per allunyar la imatge; o en les fletxes verdes per a mapes adjacents.


METAR-TAF: